X  Lukk Metar værinformasjon om luftfart     EHRD Rotterdam The Hague Airport
Temperatur
4°C Temperatur
4°C Duggpunkt
100% Luftfuktighet



Vind
8 KM/T
5 MPT
2 M/S
4 KNP



100°
Øst
Nåværende forhold

Duskregn Duskregn
Trykk 998.98 (hPa) - 29.5 (inHg)
Sikt 6 (mil) - 9.7 (km)
Flyplass
Flyplass-kode EHRD

Plassering: Rotterdam The Hague Airport
Avstand: 16 (km)

Metar:
EHRD 242125Z AUTO 10004KT 060V150 9999 DZ FEW015CB BKN022 OVC025 04/04 Q0999 TEMPO 6000 RA

Tid: 24-02-2024 21:25 CET